createdAt,value
2023-01-27T00:00:41.021Z,9.40
2023-01-27T00:03:12.819Z,9.00
2023-01-27T00:05:43.963Z,9.50
2023-01-27T00:08:11.674Z,8.87
2023-01-27T00:10:39.519Z,9.63
2023-01-27T00:13:24.970Z,8.60
2023-01-27T00:15:52.681Z,8.60
2023-01-27T00:18:20.388Z,8.70
2023-01-27T00:21:07.340Z,9.20
2023-01-27T00:23:52.667Z,9.63
2023-01-27T00:26:21.786Z,9.57
2023-01-27T00:28:49.672Z,10.70
2023-01-27T00:31:37.938Z,9.97
2023-01-27T00:34:10.129Z,10.00
2023-01-27T00:36:42.518Z,11.03
2023-01-27T00:39:11.215Z,9.97
2023-01-27T00:41:39.197Z,10.17
2023-01-27T00:44:12.873Z,10.27
2023-01-27T00:46:41.550Z,9.77
2023-01-27T00:49:10.499Z,9.93
2023-01-27T00:51:38.426Z,9.80
2023-01-27T00:54:07.582Z,9.77
2023-01-27T00:56:36.041Z,10.13
2023-01-27T01:01:53.125Z,10.20
2023-01-27T01:04:21.024Z,11.27
2023-01-27T01:06:48.809Z,11.13
2023-01-27T01:09:17.843Z,10.27
2023-01-27T01:11:46.099Z,10.70
2023-01-27T01:14:13.766Z,10.87
2023-01-27T01:16:41.415Z,8.80
2023-01-27T01:19:09.591Z,9.27
2023-01-27T01:21:40.146Z,12.20
2023-01-27T01:24:08.635Z,11.83
2023-01-27T01:26:37.703Z,10.60
2023-01-27T01:29:06.968Z,10.50
2023-01-27T01:31:34.709Z,10.93
2023-01-27T01:34:02.350Z,13.20
2023-01-27T01:36:32.904Z,10.97
2023-01-27T01:39:00.566Z,13.80
2023-01-27T01:41:28.556Z,12.03
2023-01-27T01:43:58.017Z,12.37
2023-01-27T01:46:25.739Z,11.13
2023-01-27T01:48:55.528Z,11.90
2023-01-27T01:51:27.577Z,11.93
2023-01-27T01:53:58.790Z,12.50
2023-01-27T01:56:29.453Z,12.53
2023-01-27T01:58:59.559Z,13.13
2023-01-27T02:01:27.495Z,13.17
2023-01-27T02:04:01.337Z,14.07
2023-01-27T02:06:29.692Z,11.57
2023-01-27T02:08:58.632Z,13.03
2023-01-27T02:11:27.030Z,11.97
2023-01-27T02:13:54.682Z,11.30
2023-01-27T02:16:23.666Z,11.17
2023-01-27T02:18:51.365Z,10.60
2023-01-27T02:21:19.848Z,10.30
2023-01-27T02:23:54.524Z,11.17
2023-01-27T02:26:27.525Z,10.50
2023-01-27T02:28:57.208Z,11.67
2023-01-27T02:31:25.370Z,10.30
2023-01-27T02:33:55.068Z,11.67
2023-01-27T02:36:23.267Z,10.37
2023-01-27T02:38:52.759Z,11.40
2023-01-27T02:41:22.837Z,9.23
2023-01-27T02:43:52.191Z,10.70
2023-01-27T02:46:21.474Z,11.77
2023-01-27T02:48:49.385Z,10.00
2023-01-27T02:51:17.906Z,10.30
2023-01-27T02:53:46.147Z,10.20
2023-01-27T02:56:13.964Z,10.20
2023-01-27T02:58:42.998Z,10.73
2023-01-27T03:01:21.386Z,10.97
2023-01-27T03:03:49.483Z,10.63
2023-01-27T03:06:20.311Z,10.27
2023-01-27T03:08:48.931Z,9.10
2023-01-27T03:11:37.824Z,10.07
2023-01-27T03:14:05.679Z,11.93
2023-01-27T03:16:52.475Z,8.93
2023-01-27T03:19:20.383Z,8.37
2023-01-27T03:21:51.139Z,8.80
2023-01-27T03:24:20.923Z,9.40
2023-01-27T03:26:48.918Z,11.37
2023-01-27T03:29:36.044Z,9.50
2023-01-27T03:32:05.472Z,9.13
2023-01-27T03:34:33.913Z,11.70
2023-01-27T03:37:25.221Z,11.53
2023-01-27T03:40:10.959Z,10.90
2023-01-27T03:42:57.226Z,13.60
2023-01-27T03:45:42.756Z,10.00
2023-01-27T03:48:12.845Z,12.30
2023-01-27T03:50:43.145Z,8.87
2023-01-27T03:53:11.093Z,9.80
2023-01-27T03:55:39.501Z,9.70
2023-01-27T03:58:18.153Z,11.30
2023-01-27T04:00:46.513Z,12.67
2023-01-27T04:03:33.324Z,10.40
2023-01-27T04:06:21.178Z,9.47
2023-01-27T04:08:49.358Z,10.73
2023-01-27T04:11:34.711Z,11.10
2023-01-27T04:14:03.793Z,11.40
2023-01-27T04:16:31.469Z,10.90
2023-01-27T04:19:00.766Z,9.80
2023-01-27T04:21:28.467Z,10.63
2023-01-27T04:23:56.265Z,12.80
2023-01-27T04:26:24.621Z,14.03
2023-01-27T04:28:55.149Z,10.97
2023-01-27T04:31:24.044Z,8.03
2023-01-27T04:33:52.024Z,10.30
2023-01-27T04:36:21.335Z,10.10
2023-01-27T04:38:49.415Z,11.30
2023-01-27T04:41:17.316Z,8.87
2023-01-27T04:43:45.240Z,7.70
2023-01-27T04:46:13.402Z,9.57
2023-01-27T04:48:42.793Z,12.23
2023-01-27T04:51:10.575Z,11.83
2023-01-27T04:53:41.169Z,11.70
2023-01-27T04:56:25.950Z,10.37
2023-01-27T04:58:54.276Z,7.77
2023-01-27T05:01:23.258Z,8.60
2023-01-27T05:03:51.031Z,7.97
2023-01-27T05:06:18.778Z,8.50
2023-01-27T05:08:48.141Z,9.17
2023-01-27T05:11:17.012Z,10.50
2023-01-27T05:13:44.962Z,8.53
2023-01-27T05:16:13.838Z,8.20
2023-01-27T05:18:42.216Z,10.27
2023-01-27T05:21:14.412Z,9.33
2023-01-27T05:23:42.339Z,8.57
2023-01-27T05:26:12.670Z,8.50
2023-01-27T05:28:41.599Z,11.20
2023-01-27T05:31:10.788Z,9.20
2023-01-27T05:33:38.878Z,8.17
2023-01-27T05:36:07.322Z,8.50
2023-01-27T05:38:35.402Z,8.13
2023-01-27T05:41:03.679Z,9.00
2023-01-27T05:43:35.242Z,9.23
2023-01-27T05:46:04.429Z,8.50
2023-01-27T05:48:32.694Z,7.30
2023-01-27T05:51:00.678Z,7.63
2023-01-27T05:53:28.583Z,7.70
2023-01-27T05:55:57.515Z,8.30
2023-01-27T05:58:26.216Z,9.83
2023-01-27T06:00:55.958Z,10.30
2023-01-27T06:03:23.673Z,8.53
2023-01-27T06:05:52.344Z,10.33
2023-01-27T06:08:20.325Z,8.70
2023-01-27T06:10:48.040Z,13.03
2023-01-27T06:13:16.083Z,11.20
2023-01-27T06:15:44.585Z,8.77
2023-01-27T06:18:14.495Z,8.33
2023-01-27T06:20:43.209Z,7.83
2023-01-27T06:23:11.767Z,8.03
2023-01-27T06:25:40.038Z,7.50
2023-01-27T06:28:10.781Z,9.60
2023-01-27T06:30:41.461Z,8.13
2023-01-27T06:33:09.547Z,8.70
2023-01-27T06:35:39.997Z,8.30
2023-01-27T06:38:12.322Z,7.43
2023-01-27T06:40:40.819Z,7.80
2023-01-27T06:43:12.106Z,7.60
2023-01-27T06:45:39.860Z,7.23
2023-01-27T06:48:09.189Z,7.30
2023-01-27T06:50:37.482Z,8.77
2023-01-27T06:53:07.214Z,11.00
2023-01-27T06:55:35.439Z,7.77
2023-01-27T06:58:03.486Z,9.53
2023-01-27T07:00:31.289Z,8.30
2023-01-27T07:02:59.010Z,9.60
2023-01-27T07:05:27.013Z,9.43
2023-01-27T07:07:54.592Z,8.17
2023-01-27T07:10:23.778Z,9.83
2023-01-27T07:12:53.580Z,9.70
2023-01-27T07:15:21.218Z,9.20
2023-01-27T07:17:49.192Z,9.40
2023-01-27T07:20:17.102Z,11.40
2023-01-27T07:22:44.841Z,8.87
2023-01-27T07:25:12.414Z,8.53
2023-01-27T07:27:41.939Z,9.20
2023-01-27T07:30:10.488Z,10.80
2023-01-27T07:32:38.753Z,8.90
2023-01-27T07:35:08.992Z,11.33
2023-01-27T07:37:59.526Z,9.63
2023-01-27T07:40:29.210Z,10.60
2023-01-27T07:43:00.287Z,9.90
2023-01-27T07:45:29.776Z,11.53
2023-01-27T07:48:01.060Z,12.47
2023-01-27T07:50:29.328Z,13.10
2023-01-27T07:52:59.216Z,13.03
2023-01-27T07:55:27.175Z,15.40
2023-01-27T07:57:55.392Z,14.20
2023-01-27T08:00:25.011Z,12.63
2023-01-27T08:02:52.820Z,13.23
2023-01-27T08:05:21.551Z,13.70
2023-01-27T08:07:49.640Z,13.70
2023-01-27T08:10:18.688Z,13.70
2023-01-27T08:12:46.792Z,16.07
2023-01-27T08:15:18.457Z,21.90
2023-01-27T08:17:55.366Z,14.10
2023-01-27T08:20:23.479Z,14.50
2023-01-27T08:22:51.211Z,15.13
2023-01-27T08:25:19.339Z,12.20
2023-01-27T08:27:49.960Z,13.70
2023-01-27T08:30:18.367Z,12.00
2023-01-27T08:32:46.972Z,11.67
2023-01-27T08:35:16.221Z,13.27
2023-01-27T08:37:43.914Z,12.67
2023-01-27T08:40:12.879Z,12.60
2023-01-27T08:42:40.914Z,12.50
2023-01-27T08:45:09.188Z,10.93
2023-01-27T08:47:37.135Z,12.10
2023-01-27T08:50:05.148Z,13.30
2023-01-27T08:52:34.116Z,12.03
2023-01-27T08:55:02.281Z,13.13
2023-01-27T08:57:32.329Z,12.80
2023-01-27T09:00:00.299Z,13.63
2023-01-27T09:02:28.254Z,13.17
2023-01-27T09:04:56.097Z,14.90
2023-01-27T09:07:23.766Z,12.77
2023-01-27T09:10:04.232Z,13.10
2023-01-27T09:12:40.327Z,12.50
2023-01-27T09:15:08.654Z,12.77
2023-01-27T09:17:36.514Z,12.40
2023-01-27T09:20:04.360Z,12.77
2023-01-27T09:22:32.580Z,14.30
2023-01-27T09:25:01.628Z,14.00
2023-01-27T09:27:38.761Z,12.50
2023-01-27T09:30:08.573Z,12.80
2023-01-27T09:32:36.262Z,13.13
2023-01-27T09:35:04.347Z,12.57
2023-01-27T09:37:33.871Z,10.83
2023-01-27T09:40:04.039Z,11.40
2023-01-27T09:42:43.486Z,12.00
2023-01-27T09:45:25.495Z,11.87
2023-01-27T09:48:12.344Z,10.77
2023-01-27T09:50:53.806Z,11.03
2023-01-27T09:53:31.429Z,11.77
2023-01-27T09:56:02.586Z,11.80
2023-01-27T09:58:34.967Z,11.90
2023-01-27T10:01:09.010Z,10.20
2023-01-27T10:03:44.754Z,12.10
2023-01-27T10:06:22.086Z,11.10
2023-01-27T10:09:06.327Z,12.27
2023-01-27T10:11:40.257Z,12.50
2023-01-27T10:14:15.359Z,14.20
2023-01-27T10:17:01.055Z,12.83
2023-01-27T10:19:34.727Z,12.17
2023-01-27T10:22:08.284Z,11.40
2023-01-27T10:24:42.780Z,12.20
2023-01-27T10:27:16.972Z,11.17
2023-01-27T10:29:45.967Z,10.30
2023-01-27T10:32:19.650Z,11.20
2023-01-27T10:34:50.319Z,10.30
2023-01-27T10:37:21.804Z,9.03
2023-01-27T10:39:53.159Z,9.33
2023-01-27T10:42:27.160Z,9.50
2023-01-27T10:45:01.933Z,9.93
2023-01-27T10:47:35.945Z,9.47
2023-01-27T10:50:06.936Z,9.97
2023-01-27T10:52:38.447Z,12.70
2023-01-27T10:55:13.199Z,11.57
2023-01-27T10:57:45.883Z,11.40
2023-01-27T11:00:41.809Z,10.47
2023-01-27T11:03:07.192Z,9.87
2023-01-27T11:05:37.429Z,10.10
2023-01-27T11:08:08.770Z,10.57
2023-01-27T11:10:38.229Z,11.43
2023-01-27T11:13:08.248Z,11.30
2023-01-27T11:15:36.176Z,9.27
2023-01-27T11:18:05.772Z,10.63
2023-01-27T11:20:35.221Z,8.93
2023-01-27T11:23:06.366Z,9.40
2023-01-27T11:25:39.494Z,8.20
2023-01-27T11:28:16.051Z,8.60
2023-01-27T11:30:48.337Z,7.30
2023-01-27T11:33:20.524Z,7.43
2023-01-27T11:35:48.875Z,8.67
2023-01-27T11:38:19.850Z,7.70
2023-01-27T11:40:49.967Z,8.20
2023-01-27T11:43:20.759Z,7.57
2023-01-27T11:45:49.439Z,8.73
2023-01-27T11:48:18.264Z,7.77
2023-01-27T11:50:46.202Z,8.33
2023-01-27T11:53:17.852Z,8.37
2023-01-27T11:55:47.627Z,9.60
2023-01-27T11:58:21.196Z,9.63
2023-01-27T12:00:51.887Z,7.53
2023-01-27T12:03:23.043Z,8.57
2023-01-27T12:05:54.807Z,9.23
2023-01-27T12:08:39.463Z,8.70
2023-01-27T12:11:21.085Z,8.00
2023-01-27T12:13:50.444Z,7.93
2023-01-27T12:16:19.550Z,7.90
2023-01-27T12:18:49.969Z,8.63
2023-01-27T12:21:18.809Z,7.47
2023-01-27T12:23:50.785Z,7.40
2023-01-27T12:26:29.376Z,7.17
2023-01-27T12:28:58.474Z,8.80
2023-01-27T12:31:30.947Z,8.70
2023-01-27T12:34:00.125Z,7.53
2023-01-27T12:36:30.379Z,7.30
2023-01-27T12:39:01.156Z,7.50
2023-01-27T12:41:29.682Z,6.60
2023-01-27T12:44:00.201Z,7.87
2023-01-27T12:46:31.457Z,9.00
2023-01-27T12:49:03.627Z,10.17
2023-01-27T12:51:39.819Z,9.57
2023-01-27T12:54:18.292Z,9.10
2023-01-27T12:56:46.188Z,11.87
2023-01-27T12:59:15.096Z,10.97
2023-01-27T13:01:47.064Z,11.73
2023-01-27T13:04:15.904Z,11.57
2023-01-27T13:06:47.657Z,11.90
2023-01-27T13:09:24.715Z,9.60
2023-01-27T13:11:52.952Z,9.57
2023-01-27T13:14:20.594Z,9.97
2023-01-27T13:16:53.583Z,9.40
2023-01-27T13:19:21.565Z,9.30
2023-01-27T13:21:51.087Z,9.80
2023-01-27T13:24:21.662Z,8.60
2023-01-27T13:26:50.392Z,8.17
2023-01-27T13:29:21.827Z,7.10
2023-01-27T13:31:51.909Z,8.03
2023-01-27T13:34:25.047Z,8.90
2023-01-27T13:36:54.575Z,8.20
2023-01-27T13:39:29.745Z,7.10
2023-01-27T13:42:06.815Z,8.03
2023-01-27T13:44:37.840Z,8.10
2023-01-27T13:47:10.186Z,7.50
2023-01-27T13:49:42.363Z,8.10
2023-01-27T13:52:11.966Z,8.00
2023-01-27T13:54:40.138Z,8.50
2023-01-27T13:57:24.404Z,8.73
2023-01-27T14:00:02.005Z,8.80
2023-01-27T14:03:04.414Z,8.20
2023-01-27T14:05:43.041Z,7.37
2023-01-27T14:08:17.582Z,7.40
2023-01-27T14:10:55.287Z,7.30
2023-01-27T14:13:29.309Z,7.93
2023-01-27T14:16:02.408Z,7.50
2023-01-27T14:18:31.913Z,6.97
2023-01-27T14:21:09.515Z,7.47
2023-01-27T14:23:43.120Z,6.77
2023-01-27T14:26:15.046Z,7.83
2023-01-27T14:28:49.155Z,7.03
2023-01-27T14:31:19.908Z,7.00
2023-01-27T14:33:59.715Z,7.13
2023-01-27T14:36:30.713Z,6.33
2023-01-27T14:39:03.248Z,6.00
2023-01-27T14:41:35.000Z,5.53
2023-01-27T14:44:09.111Z,6.03
2023-01-27T14:46:47.897Z,4.80
2023-01-27T14:49:23.420Z,4.80
2023-01-27T14:51:54.560Z,3.93
2023-01-27T14:54:29.856Z,3.73
2023-01-27T14:57:08.618Z,12.90
2023-01-27T14:59:41.552Z,4.50
2023-01-27T15:02:16.748Z,5.20
2023-01-27T15:04:48.469Z,6.10
2023-01-27T15:07:22.869Z,5.77
2023-01-27T15:09:59.311Z,5.30
2023-01-27T15:12:35.166Z,3.90
2023-01-27T15:15:09.211Z,3.50
2023-01-27T15:17:43.256Z,4.30
2023-01-27T15:20:24.244Z,2.80
2023-01-27T15:23:02.318Z,3.43
2023-01-27T15:25:33.880Z,3.37
2023-01-27T15:28:02.601Z,3.37
2023-01-27T15:30:31.027Z,3.63
2023-01-27T15:32:59.096Z,3.67
2023-01-27T15:35:33.365Z,4.97
2023-01-27T15:38:14.539Z,8.30
2023-01-27T15:41:07.138Z,4.00
2023-01-27T15:43:38.698Z,5.40
2023-01-27T15:46:20.430Z,5.93
2023-01-27T15:48:48.857Z,3.90
2023-01-27T15:51:18.349Z,4.10
2023-01-27T15:53:50.349Z,7.23
2023-01-27T15:56:18.264Z,6.60
2023-01-27T15:58:51.708Z,4.20
2023-01-27T16:01:27.709Z,5.60
2023-01-27T16:04:05.671Z,4.00
2023-01-27T16:06:33.772Z,3.27
2023-01-27T16:09:04.232Z,3.73
2023-01-27T16:11:42.668Z,3.50
2023-01-27T16:14:34.531Z,3.47
2023-01-27T16:17:05.148Z,4.30
2023-01-27T16:19:35.171Z,4.47
2023-01-27T16:22:04.264Z,5.20
2023-01-27T16:24:37.090Z,4.13
2023-01-27T16:27:07.833Z,3.93
2023-01-27T16:29:39.760Z,4.63
2023-01-27T16:32:14.609Z,3.47
2023-01-27T16:34:47.241Z,4.87
2023-01-27T16:37:24.416Z,4.27
2023-01-27T16:39:57.318Z,3.70
2023-01-27T16:42:29.068Z,3.60
2023-01-27T16:44:59.681Z,3.60
2023-01-27T16:47:29.875Z,3.63
2023-01-27T16:49:59.892Z,2.70
2023-01-27T16:52:41.209Z,3.57
2023-01-27T16:55:21.449Z,3.87
2023-01-27T16:57:49.186Z,3.40
2023-01-27T17:00:20.071Z,3.53
2023-01-27T17:02:48.935Z,4.57
2023-01-27T17:05:17.655Z,5.00
2023-01-27T17:08:01.846Z,3.97
2023-01-27T17:10:35.272Z,3.30
2023-01-27T17:13:03.449Z,4.20
2023-01-27T17:15:31.590Z,5.00
2023-01-27T17:17:59.451Z,4.53
2023-01-27T17:20:29.952Z,4.00
2023-01-27T17:22:57.661Z,4.50
2023-01-27T17:25:28.603Z,5.47
2023-01-27T17:27:59.319Z,7.70
2023-01-27T17:30:28.999Z,7.10
2023-01-27T17:32:58.127Z,7.00
2023-01-27T17:35:26.660Z,5.97
2023-01-27T17:38:04.818Z,4.17
2023-01-27T17:40:36.597Z,6.57
2023-01-27T17:43:17.550Z,5.97
2023-01-27T17:45:47.283Z,3.67
2023-01-27T17:48:15.845Z,6.27
2023-01-27T17:50:46.071Z,4.40
2023-01-27T17:53:14.116Z,4.60
2023-01-27T17:55:41.742Z,4.80
2023-01-27T17:58:17.089Z,4.00
2023-01-27T18:00:46.121Z,3.57
2023-01-27T18:03:15.151Z,4.20
2023-01-27T18:05:44.150Z,5.13
2023-01-27T18:08:12.132Z,4.00
2023-01-27T18:10:44.367Z,4.60
2023-01-27T18:13:20.872Z,3.50
2023-01-27T18:15:49.512Z,4.73
2023-01-27T18:18:22.269Z,5.60
2023-01-27T18:20:54.763Z,5.03
2023-01-27T18:23:26.654Z,3.83
2023-01-27T18:26:03.256Z,6.10
2023-01-27T18:28:34.083Z,6.63
2023-01-27T18:31:02.613Z,4.43
2023-01-27T18:33:33.262Z,6.00
2023-01-27T18:36:01.798Z,5.83
2023-01-27T18:38:31.023Z,4.60
2023-01-27T18:41:09.197Z,6.20
2023-01-27T18:43:38.222Z,5.07
2023-01-27T18:46:10.234Z,5.50
2023-01-27T18:48:40.050Z,5.60
2023-01-27T18:51:09.320Z,5.97
2023-01-27T18:53:37.107Z,8.40
2023-01-27T18:56:04.829Z,5.07
2023-01-27T18:58:32.832Z,5.90
2023-01-27T19:01:02.077Z,5.80
2023-01-27T19:03:34.671Z,6.40
2023-01-27T19:06:02.794Z,5.93
2023-01-27T19:08:30.491Z,7.40
2023-01-27T19:10:58.430Z,6.40
2023-01-27T19:13:26.173Z,7.20
2023-01-27T19:15:55.151Z,6.93
2023-01-27T19:18:26.322Z,7.57
2023-01-27T19:20:54.234Z,10.80
2023-01-27T19:23:22.495Z,7.77
2023-01-27T19:25:51.812Z,8.00
2023-01-27T19:28:22.128Z,10.37
2023-01-27T19:30:50.038Z,8.77
2023-01-27T19:33:19.396Z,9.03
2023-01-27T19:35:50.323Z,7.87
2023-01-27T19:38:18.406Z,7.03
2023-01-27T19:40:46.197Z,7.30
2023-01-27T19:43:14.476Z,7.97
2023-01-27T19:45:42.259Z,7.03
2023-01-27T19:48:12.632Z,8.70
2023-01-27T19:50:40.397Z,7.00
2023-01-27T19:53:09.692Z,11.30
2023-01-27T19:55:38.065Z,7.57
2023-01-27T19:58:06.963Z,8.90
2023-01-27T20:00:36.396Z,10.50
2023-01-27T20:03:05.116Z,7.90
2023-01-27T20:05:35.469Z,7.90
2023-01-27T20:08:03.509Z,7.33
2023-01-27T20:10:33.607Z,9.07
2023-01-27T20:13:03.039Z,5.87
2023-01-27T20:15:32.780Z,6.70
2023-01-27T20:18:00.613Z,7.60
2023-01-27T20:20:28.385Z,6.70
2023-01-27T20:22:56.360Z,6.00
2023-01-27T20:25:25.386Z,6.77
2023-01-27T20:27:55.174Z,5.60
2023-01-27T20:30:23.915Z,6.10
2023-01-27T20:32:55.122Z,5.17
2023-01-27T20:35:24.359Z,5.60
2023-01-27T20:37:53.066Z,4.80
2023-01-27T20:40:22.310Z,6.83
2023-01-27T20:42:50.340Z,32.77
2023-01-27T20:45:20.302Z,13.23
2023-01-27T20:47:52.709Z,7.50
2023-01-27T20:50:20.633Z,8.03
2023-01-27T20:52:48.676Z,7.30
2023-01-27T20:55:17.338Z,6.93
2023-01-27T20:57:45.217Z,9.40
2023-01-27T21:00:16.283Z,5.93
2023-01-27T21:02:45.472Z,5.87
2023-01-27T21:05:14.121Z,7.27
2023-01-27T21:07:42.631Z,6.70
2023-01-27T21:10:10.663Z,5.00
2023-01-27T21:12:40.855Z,6.70
2023-01-27T21:15:10.152Z,6.17
2023-01-27T21:17:38.022Z,6.10
2023-01-27T21:20:09.035Z,5.30
2023-01-27T21:22:37.007Z,6.47
2023-01-27T21:25:04.790Z,5.20
2023-01-27T21:27:32.721Z,7.50
2023-01-27T21:30:01.490Z,5.87
2023-01-27T21:32:29.342Z,5.60
2023-01-27T21:34:58.479Z,6.40
2023-01-27T21:37:27.723Z,4.73
2023-01-27T21:39:55.353Z,5.90
2023-01-27T21:42:40.729Z,5.07
2023-01-27T21:45:15.119Z,7.27
2023-01-27T21:47:43.699Z,5.67
2023-01-27T21:50:11.952Z,6.10
2023-01-27T21:52:42.811Z,7.37
2023-01-27T21:55:12.234Z,5.70
2023-01-27T21:57:40.308Z,10.40
2023-01-27T22:00:10.321Z,9.60
2023-01-27T22:02:42.318Z,8.40
2023-01-27T22:05:10.455Z,5.83
2023-01-27T22:07:38.936Z,8.23
2023-01-27T22:10:08.962Z,6.80
2023-01-27T22:12:36.694Z,5.83
2023-01-27T22:15:06.432Z,11.77
2023-01-27T22:17:34.637Z,7.53
2023-01-27T22:20:02.603Z,5.57
2023-01-27T22:22:30.489Z,6.57
2023-01-27T22:24:58.217Z,6.90
2023-01-27T22:27:27.408Z,8.47
2023-01-27T22:29:55.179Z,6.93
2023-01-27T22:32:23.020Z,5.60
2023-01-27T22:34:50.791Z,7.40
2023-01-27T22:37:18.499Z,7.60
2023-01-27T22:39:46.580Z,53.17
2023-01-27T22:42:14.185Z,52.87
2023-01-27T22:44:43.528Z,22.73
2023-01-27T22:47:11.383Z,9.60
2023-01-27T22:49:39.312Z,9.17
2023-01-27T22:52:07.056Z,8.50
2023-01-27T22:54:35.337Z,9.17
2023-01-27T22:57:03.130Z,30.57
2023-01-27T22:59:30.955Z,14.90
2023-01-27T23:02:00.013Z,18.90
2023-01-27T23:04:27.826Z,9.90
2023-01-27T23:06:55.484Z,16.90
2023-01-27T23:09:23.754Z,7.50
2023-01-27T23:11:51.435Z,15.70
2023-01-27T23:14:20.221Z,7.57
2023-01-27T23:16:47.840Z,16.97
2023-01-27T23:19:16.833Z,7.10
2023-01-27T23:21:44.464Z,10.53
2023-01-27T23:24:12.250Z,9.20
2023-01-27T23:26:39.897Z,9.80
2023-01-27T23:29:22.984Z,7.70
2023-01-27T23:31:52.110Z,9.93
2023-01-27T23:34:21.815Z,10.77
2023-01-27T23:36:49.740Z,9.10
2023-01-27T23:39:17.623Z,7.27
2023-01-27T23:41:45.725Z,9.00
2023-01-27T23:44:13.670Z,9.90
2023-01-27T23:46:43.155Z,7.10
2023-01-27T23:49:11.489Z,9.03
2023-01-27T23:51:40.699Z,9.43
2023-01-27T23:54:08.663Z,8.10
2023-01-27T23:56:36.403Z,10.40
2023-01-27T23:59:04.217Z,9.40
